createdAt,value
2019-02-21T00:03:35.909Z,13.38
2019-02-21T00:07:40.661Z,14.63
2019-02-21T00:11:45.524Z,15.70
2019-02-21T00:15:50.269Z,14.40
2019-02-21T00:19:55.193Z,13.05
2019-02-21T00:24:00.008Z,14.53
2019-02-21T00:28:05.097Z,12.88
2019-02-21T00:32:09.960Z,13.43
2019-02-21T00:36:14.715Z,13.53
2019-02-21T00:40:19.649Z,11.57
2019-02-21T00:44:24.387Z,13.13
2019-02-21T00:48:29.212Z,12.10
2019-02-21T00:52:34.168Z,14.47
2019-02-21T00:56:38.993Z,13.80
2019-02-21T01:00:46.724Z,12.90
2019-02-21T01:04:50.412Z,15.35
2019-02-21T01:08:55.268Z,13.80
2019-02-21T01:13:00.359Z,14.90
2019-02-21T01:17:05.301Z,15.53
2019-02-21T01:21:11.197Z,14.38
2019-02-21T01:25:15.939Z,14.70
2019-02-21T01:29:20.756Z,14.63
2019-02-21T01:33:25.580Z,14.93
2019-02-21T01:37:30.310Z,14.35
2019-02-21T01:41:35.417Z,15.05
2019-02-21T01:45:40.310Z,13.50
2019-02-21T01:49:45.115Z,14.45
2019-02-21T01:53:49.859Z,12.50
2019-02-21T01:57:54.601Z,13.80
2019-02-21T02:01:59.581Z,13.00
2019-02-21T02:06:04.531Z,14.45
2019-02-21T02:10:10.042Z,15.95
2019-02-21T02:14:14.859Z,14.38
2019-02-21T02:18:19.781Z,14.15
2019-02-21T02:22:24.779Z,15.28
2019-02-21T02:26:29.702Z,14.10
2019-02-21T02:30:34.815Z,16.02
2019-02-21T02:34:39.626Z,14.65
2019-02-21T02:38:44.467Z,14.85
2019-02-21T02:42:49.440Z,14.60
2019-02-21T02:46:54.306Z,16.05
2019-02-21T02:50:59.216Z,16.95
2019-02-21T02:55:04.285Z,16.05
2019-02-21T02:59:09.182Z,16.23
2019-02-21T03:03:14.021Z,15.53
2019-02-21T03:07:18.839Z,15.72
2019-02-21T03:11:23.790Z,14.38
2019-02-21T03:15:28.609Z,15.00
2019-02-21T03:19:33.629Z,16.35
2019-02-21T03:23:38.492Z,14.35
2019-02-21T03:27:43.393Z,15.28
2019-02-21T03:31:54.170Z,14.07
2019-02-21T03:35:54.661Z,16.30
2019-02-21T03:40:00.683Z,17.20
2019-02-21T03:44:05.519Z,14.35
2019-02-21T03:48:10.384Z,16.20
2019-02-21T03:52:15.203Z,15.78
2019-02-21T03:56:20.085Z,15.20
2019-02-21T04:00:25.261Z,15.45
2019-02-21T04:04:30.152Z,14.35
2019-02-21T04:08:34.954Z,14.05
2019-02-21T04:12:40.013Z,14.90
2019-02-21T04:16:44.981Z,15.03
2019-02-21T04:20:50.015Z,16.90
2019-02-21T04:24:54.736Z,14.18
2019-02-21T04:28:59.484Z,13.93
2019-02-21T04:33:04.601Z,15.08
2019-02-21T04:37:09.412Z,14.07
2019-02-21T04:41:14.508Z,14.40
2019-02-21T04:45:19.248Z,14.55
2019-02-21T04:49:24.172Z,14.50
2019-02-21T04:53:28.919Z,14.10
2019-02-21T04:57:33.660Z,14.18
2019-02-21T05:01:40.351Z,13.85
2019-02-21T05:05:45.337Z,15.68
2019-02-21T05:09:57.928Z,14.30
2019-02-21T05:13:57.910Z,12.05
2019-02-21T05:18:02.759Z,13.40
2019-02-21T05:22:07.737Z,15.13
2019-02-21T05:26:15.491Z,14.10
2019-02-21T05:30:23.150Z,15.25
2019-02-21T05:34:41.509Z,17.98
2019-02-21T05:39:18.455Z,16.73
2019-02-21T05:43:40.966Z,17.12
2019-02-21T05:48:10.776Z,17.17
2019-02-21T05:52:23.145Z,15.18
2019-02-21T05:56:52.811Z,13.65
2019-02-21T06:01:03.633Z,13.22
2019-02-21T06:05:30.258Z,13.85
2019-02-21T06:10:01.141Z,13.55
2019-02-21T06:14:24.083Z,14.80
2019-02-21T06:18:47.017Z,14.63
2019-02-21T06:23:09.720Z,14.80
2019-02-21T06:27:45.506Z,13.30
2019-02-21T06:31:50.314Z,14.78
2019-02-21T06:35:55.288Z,13.30
2019-02-21T06:40:02.476Z,13.05
2019-02-21T06:44:07.338Z,13.45
2019-02-21T06:48:12.095Z,13.93
2019-02-21T06:52:16.948Z,13.68
2019-02-21T06:56:21.726Z,13.55
2019-02-21T07:00:26.608Z,14.20
2019-02-21T07:04:33.302Z,13.22
2019-02-21T07:08:40.041Z,14.18
2019-02-21T07:12:44.541Z,13.15
2019-02-21T07:16:49.269Z,13.80
2019-02-21T07:20:54.092Z,13.15
2019-02-21T07:25:04.157Z,13.22
2019-02-21T07:29:08.896Z,12.98
2019-02-21T07:33:14.004Z,14.45
2019-02-21T07:37:19.203Z,12.55
2019-02-21T07:41:24.448Z,13.53
2019-02-21T07:45:29.248Z,13.93
2019-02-21T07:49:34.116Z,13.90
2019-02-21T07:53:38.843Z,13.10
2019-02-21T07:57:43.580Z,13.15
2019-02-21T08:01:49.295Z,13.98
2019-02-21T08:05:54.090Z,13.83
2019-02-21T08:09:59.128Z,13.32
2019-02-21T08:14:04.350Z,11.88
2019-02-21T08:18:09.229Z,14.80
2019-02-21T08:22:13.982Z,13.68
2019-02-21T08:26:20.085Z,12.65
2019-02-21T08:30:28.997Z,13.85
2019-02-21T08:34:37.059Z,12.35
2019-02-21T08:38:41.788Z,13.03
2019-02-21T08:42:46.623Z,13.35
2019-02-21T08:46:53.392Z,12.90
2019-02-21T08:50:57.799Z,14.80
2019-02-21T08:55:02.534Z,15.25
2019-02-21T08:59:07.288Z,15.90
2019-02-21T09:03:12.480Z,15.35
2019-02-21T09:07:17.300Z,16.77
2019-02-21T09:11:22.369Z,14.90
2019-02-21T09:15:27.256Z,15.70
2019-02-21T09:19:32.169Z,15.68
2019-02-21T09:23:36.969Z,16.40
2019-02-21T09:27:41.791Z,15.88
2019-02-21T09:31:46.621Z,16.57
2019-02-21T09:35:51.417Z,17.37
2019-02-21T09:39:56.179Z,16.45
2019-02-21T09:44:00.917Z,16.77
2019-02-21T09:48:05.657Z,16.40
2019-02-21T09:52:10.392Z,16.67
2019-02-21T09:56:15.128Z,16.75
2019-02-21T10:00:20.390Z,15.70
2019-02-21T10:04:32.103Z,14.65
2019-02-21T10:08:31.645Z,15.32
2019-02-21T10:12:36.584Z,14.78
2019-02-21T10:16:41.338Z,13.35
2019-02-21T10:20:46.241Z,13.28
2019-02-21T10:24:51.360Z,13.30
2019-02-21T10:28:57.272Z,13.43
2019-02-21T10:33:02.104Z,14.33
2019-02-21T10:37:06.889Z,13.75
2019-02-21T10:41:11.668Z,13.72
2019-02-21T10:45:17.661Z,13.72
2019-02-21T10:49:22.578Z,14.70
2019-02-21T10:53:27.324Z,12.73
2019-02-21T10:57:32.168Z,14.07
2019-02-21T11:01:36.908Z,13.20
2019-02-21T11:05:41.727Z,14.40
2019-02-21T11:09:46.548Z,13.00
2019-02-21T11:13:51.386Z,13.60
2019-02-21T11:17:56.208Z,14.40
2019-02-21T11:22:01.047Z,14.58
2019-02-21T11:26:06.527Z,13.53
2019-02-21T11:30:14.039Z,14.98
2019-02-21T11:34:21.495Z,13.55
2019-02-21T11:38:26.309Z,13.08
2019-02-21T11:42:31.324Z,14.45
2019-02-21T11:46:36.065Z,13.93
2019-02-21T11:50:40.811Z,15.40
2019-02-21T11:54:45.552Z,14.80
2019-02-21T11:58:52.589Z,15.53
2019-02-21T12:02:57.507Z,15.30
2019-02-21T12:07:02.306Z,16.75
2019-02-21T12:11:07.140Z,16.17
2019-02-21T12:15:13.444Z,15.45
2019-02-21T12:19:18.189Z,14.93
2019-02-21T12:23:23.119Z,15.23
2019-02-21T12:27:27.849Z,14.25
2019-02-21T12:31:32.616Z,17.05
2019-02-21T12:35:37.506Z,16.73
2019-02-21T12:39:42.275Z,17.45
2019-02-21T12:43:47.014Z,15.48
2019-02-21T12:47:53.821Z,16.55
2019-02-21T12:51:58.178Z,15.38
2019-02-21T12:56:02.950Z,15.72
2019-02-21T13:00:11.595Z,16.93
2019-02-21T13:04:16.340Z,16.07
2019-02-21T13:08:21.205Z,16.07
2019-02-21T13:12:25.963Z,16.80
2019-02-21T13:16:31.081Z,15.65
2019-02-21T13:20:35.848Z,16.07
2019-02-21T13:24:40.673Z,17.42
2019-02-21T13:28:45.493Z,16.87
2019-02-21T13:32:50.221Z,17.12
2019-02-21T13:36:55.110Z,17.10
2019-02-21T13:40:59.879Z,18.25
2019-02-21T13:45:05.052Z,17.50
2019-02-21T13:49:09.868Z,16.12
2019-02-21T13:53:14.600Z,17.32
2019-02-21T13:57:19.351Z,17.62
2019-02-21T14:01:24.173Z,15.65
2019-02-21T14:05:28.908Z,16.87
2019-02-21T14:09:33.660Z,17.23
2019-02-21T14:13:38.389Z,16.65
2019-02-21T14:17:43.193Z,16.65
2019-02-21T14:21:47.953Z,15.48
2019-02-21T14:25:52.695Z,16.37
2019-02-21T14:29:57.497Z,14.75
2019-02-21T14:34:02.333Z,11.97
2019-02-21T14:38:07.188Z,12.68
2019-02-21T14:42:11.947Z,13.53
2019-02-21T14:46:16.703Z,12.70
2019-02-21T14:50:21.524Z,11.73
2019-02-21T14:54:26.373Z,11.45
2019-02-21T14:58:31.099Z,8.73
2019-02-21T15:02:35.867Z,6.28
2019-02-21T15:06:40.673Z,6.97
2019-02-21T15:10:45.453Z,7.25
2019-02-21T15:14:50.248Z,7.50
2019-02-21T15:18:55.413Z,7.55
2019-02-21T15:23:00.616Z,8.18
2019-02-21T15:27:08.555Z,8.38
2019-02-21T15:31:11.951Z,6.67
2019-02-21T15:35:19.273Z,7.50
2019-02-21T15:39:23.265Z,7.17
2019-02-21T15:43:28.191Z,7.65
2019-02-21T15:47:33.017Z,7.72
2019-02-21T15:51:37.789Z,7.10
2019-02-21T15:55:42.531Z,7.03
2019-02-21T15:59:47.339Z,7.60
2019-02-21T16:03:52.061Z,7.30
2019-02-21T16:07:57.040Z,6.70
2019-02-21T16:12:01.945Z,7.58
2019-02-21T16:16:07.008Z,7.70
2019-02-21T16:20:13.077Z,8.23
2019-02-21T16:24:19.009Z,7.53
2019-02-21T16:28:24.711Z,7.20
2019-02-21T16:32:29.541Z,8.25
2019-02-21T16:36:34.384Z,8.15
2019-02-21T16:40:39.231Z,7.80
2019-02-21T16:44:44.030Z,8.60
2019-02-21T16:48:48.768Z,7.95
2019-02-21T16:52:53.532Z,8.85
2019-02-21T16:56:58.348Z,8.45
2019-02-21T17:01:03.103Z,7.95
2019-02-21T17:05:08.456Z,8.03
2019-02-21T17:09:13.624Z,8.35
2019-02-21T17:13:18.471Z,7.70
2019-02-21T17:17:23.224Z,8.10
2019-02-21T17:21:28.349Z,7.95
2019-02-21T17:25:33.099Z,8.33
2019-02-21T17:29:37.822Z,9.35
2019-02-21T17:33:42.875Z,8.63
2019-02-21T17:37:47.696Z,8.70
2019-02-21T17:41:53.727Z,9.33
2019-02-21T17:45:58.456Z,7.87
2019-02-21T17:50:03.736Z,8.95
2019-02-21T17:54:09.770Z,8.93
2019-02-21T17:58:17.110Z,9.60
2019-02-21T18:02:21.356Z,11.45
2019-02-21T18:06:26.208Z,9.15
2019-02-21T18:10:31.002Z,9.48
2019-02-21T18:14:35.816Z,9.35
2019-02-21T18:18:40.640Z,10.58
2019-02-21T18:22:45.534Z,10.63
2019-02-21T18:26:50.298Z,9.75
2019-02-21T18:30:55.182Z,10.55
2019-02-21T18:35:00.310Z,10.63
2019-02-21T18:39:08.056Z,13.03
2019-02-21T18:43:13.375Z,13.18
2019-02-21T18:47:18.192Z,13.62
2019-02-21T18:51:23.194Z,13.45
2019-02-21T18:55:28.023Z,15.50
2019-02-21T18:59:32.835Z,14.50
2019-02-21T19:03:38.825Z,14.80
2019-02-21T19:07:43.792Z,14.83
2019-02-21T19:11:48.601Z,15.08
2019-02-21T19:15:55.055Z,16.70
2019-02-21T19:19:59.863Z,15.75
2019-02-21T19:24:04.757Z,16.02
2019-02-21T19:28:09.551Z,16.12
2019-02-21T19:32:16.668Z,15.53
2019-02-21T19:36:21.844Z,17.75
2019-02-21T19:40:28.324Z,18.45
2019-02-21T19:44:33.437Z,18.65
2019-02-21T19:48:38.573Z,18.45
2019-02-21T19:52:43.543Z,19.90
2019-02-21T19:56:48.681Z,18.35
2019-02-21T20:00:54.507Z,17.27
2019-02-21T20:04:59.707Z,18.90
2019-02-21T20:09:06.479Z,18.65
2019-02-21T20:13:15.161Z,18.75
2019-02-21T20:17:20.376Z,19.25
2019-02-21T20:21:25.316Z,17.90
2019-02-21T20:25:31.160Z,19.07
2019-02-21T20:29:36.634Z,17.77
2019-02-21T20:33:41.589Z,17.85
2019-02-21T20:37:46.496Z,18.50
2019-02-21T20:41:51.465Z,18.82
2019-02-21T20:45:56.361Z,18.17
2019-02-21T20:50:01.385Z,19.35
2019-02-21T20:54:06.236Z,19.27
2019-02-21T20:58:11.855Z,19.05
2019-02-21T21:02:17.020Z,18.45
2019-02-21T21:06:22.008Z,20.23
2019-02-21T21:10:27.108Z,20.12
2019-02-21T21:14:32.097Z,21.42
2019-02-21T21:18:37.147Z,20.52
2019-02-21T21:22:42.452Z,19.98
2019-02-21T21:26:47.231Z,21.65
2019-02-21T21:30:52.320Z,21.12
2019-02-21T21:34:57.068Z,23.05
2019-02-21T21:39:01.952Z,21.62
2019-02-21T21:43:08.508Z,21.62
2019-02-21T21:47:13.233Z,20.92
2019-02-21T21:51:18.223Z,20.95
2019-02-21T21:55:23.101Z,21.42
2019-02-21T21:59:27.915Z,21.15
2019-02-21T22:03:33.050Z,20.10
2019-02-21T22:07:37.893Z,20.32
2019-02-21T22:11:42.785Z,20.12
2019-02-21T22:15:47.663Z,19.30
2019-02-21T22:19:52.944Z,17.48
2019-02-21T22:23:57.757Z,16.95
2019-02-21T22:28:02.560Z,17.23
2019-02-21T22:32:07.653Z,17.70
2019-02-21T22:36:12.544Z,18.98
2019-02-21T22:40:17.674Z,16.32
2019-02-21T22:44:22.501Z,16.70
2019-02-21T22:48:27.316Z,15.65
2019-02-21T22:52:32.313Z,17.30
2019-02-21T22:56:37.363Z,15.32
2019-02-21T23:00:59.024Z,15.93
2019-02-21T23:05:45.328Z,16.75
2019-02-21T23:09:51.692Z,15.43
2019-02-21T23:13:56.896Z,16.82
2019-02-21T23:18:01.848Z,15.85
2019-02-21T23:22:06.804Z,16.45
2019-02-21T23:26:12.044Z,16.37
2019-02-21T23:30:17.105Z,15.53
2019-02-21T23:34:32.815Z,17.07
2019-02-21T23:38:37.547Z,17.45
2019-02-21T23:42:42.660Z,17.07
2019-02-21T23:46:48.339Z,16.35
2019-02-21T23:50:53.283Z,16.00
2019-02-21T23:54:58.185Z,17.23
2019-02-21T23:59:02.921Z,16.80
